sensor_id;sensor_type;location;lat;lon;timestamp;temperature;humidity
1678;DHT22;6034;46.864;15.216;2023-06-14T05:03:06;15.00;99.90
1678;DHT22;6034;46.864;15.216;2023-06-14T05:05:34;15.00;99.90
1678;DHT22;6034;46.864;15.216;2023-06-14T05:08:01;15.00;99.90
1678;DHT22;6034;46.864;15.216;2023-06-14T05:10:29;15.10;99.90
1678;DHT22;6034;46.864;15.216;2023-06-14T05:12:56;15.10;99.90
1678;DHT22;6034;46.864;15.216;2023-06-14T05:15:23;15.20;99.90
1678;DHT22;6034;46.864;15.216;2023-06-14T05:17:51;15.20;99.90
1678;DHT22;6034;46.864;15.216;2023-06-14T05:20:23;15.30;99.90
1678;DHT22;6034;46.864;15.216;2023-06-14T05:22:52;15.40;99.90
1678;DHT22;6034;46.864;15.216;2023-06-14T05:25:19;15.40;99.90
1678;DHT22;6034;46.864;15.216;2023-06-14T05:27:47;15.30;99.90
1678;DHT22;6034;46.864;15.216;2023-06-14T05:30:15;15.40;99.90
1678;DHT22;6034;46.864;15.216;2023-06-14T05:32:43;15.10;99.90
1678;DHT22;6034;46.864;15.216;2023-06-14T05:35:12;14.90;99.90
1678;DHT22;6034;46.864;15.216;2023-06-14T05:37:41;15.10;99.90
1678;DHT22;6034;46.864;15.216;2023-06-14T05:40:09;15.10;99.90
1678;DHT22;6034;46.864;15.216;2023-06-14T05:42:37;15.20;99.90
1678;DHT22;6034;46.864;15.216;2023-06-14T05:45:06;15.10;99.90
1678;DHT22;6034;46.864;15.216;2023-06-14T05:47:33;14.90;99.90
1678;DHT22;6034;46.864;15.216;2023-06-14T05:50:01;15.00;99.90
1678;DHT22;6034;46.864;15.216;2023-06-14T05:52:28;14.90;99.90
1678;DHT22;6034;46.864;15.216;2023-06-14T05:54:57;15.20;99.90
1678;DHT22;6034;46.864;15.216;2023-06-14T05:57:24;15.30;99.90
1678;DHT22;6034;46.864;15.216;2023-06-14T05:59:51;15.40;99.90
1678;DHT22;6034;46.864;15.216;2023-06-14T06:02:18;15.40;99.90
1678;DHT22;6034;46.864;15.216;2023-06-14T06:04:46;15.30;99.90
1678;DHT22;6034;46.864;15.216;2023-06-14T06:07:13;15.30;99.90
1678;DHT22;6034;46.864;15.216;2023-06-14T06:09:40;15.50;99.90
1678;DHT22;6034;46.864;15.216;2023-06-14T06:12:09;15.50;99.90
1678;DHT22;6034;46.864;15.216;2023-06-14T06:14:36;15.50;99.90
1678;DHT22;6034;46.864;15.216;2023-06-14T06:17:04;15.40;99.90
1678;DHT22;6034;46.864;15.216;2023-06-14T06:19:32;15.40;99.90
1678;DHT22;6034;46.864;15.216;2023-06-14T06:21:59;15.40;99.90
1678;DHT22;6034;46.864;15.216;2023-06-14T06:24:26;15.40;99.90
1678;DHT22;6034;46.864;15.216;2023-06-14T06:26:54;15.40;99.90
1678;DHT22;6034;46.864;15.216;2023-06-14T06:29:22;15.40;99.90
1678;DHT22;6034;46.864;15.216;2023-06-14T06:31:49;15.40;99.90
1678;DHT22;6034;46.864;15.216;2023-06-14T06:34:16;15.40;99.90
1678;DHT22;6034;46.864;15.216;2023-06-14T06:36:44;15.50;99.90
1678;DHT22;6034;46.864;15.216;2023-06-14T06:39:11;15.50;99.90
1678;DHT22;6034;46.864;15.216;2023-06-14T06:41:41;15.50;99.90
1678;DHT22;6034;46.864;15.216;2023-06-14T06:44:08;15.50;99.90
1678;DHT22;6034;46.864;15.216;2023-06-14T06:46:38;15.50;99.90
1678;DHT22;6034;46.864;15.216;2023-06-14T06:49:07;15.60;99.90
1678;DHT22;6034;46.864;15.216;2023-06-14T06:51:35;15.60;99.90
1678;DHT22;6034;46.864;15.216;2023-06-14T06:54:03;15.50;99.90
1678;DHT22;6034;46.864;15.216;2023-06-14T06:56:31;15.60;99.90
1678;DHT22;6034;46.864;15.216;2023-06-14T06:58:59;15.60;99.90
1678;DHT22;6034;46.864;15.216;2023-06-14T07:01:26;15.50;99.90
1678;DHT22;6034;46.864;15.216;2023-06-14T07:03:56;15.50;99.90
1678;DHT22;6034;46.864;15.216;2023-06-14T07:06:23;15.40;99.90
1678;DHT22;6034;46.864;15.216;2023-06-14T07:08:53;15.40;99.90
1678;DHT22;6034;46.864;15.216;2023-06-14T07:11:20;15.50;99.90
1678;DHT22;6034;46.864;15.216;2023-06-14T07:13:47;15.50;99.90
1678;DHT22;6034;46.864;15.216;2023-06-14T07:16:14;15.50;99.90
1678;DHT22;6034;46.864;15.216;2023-06-14T07:18:41;15.50;99.90
1678;DHT22;6034;46.864;15.216;2023-06-14T07:21:11;15.40;99.90
1678;DHT22;6034;46.864;15.216;2023-06-14T07:23:38;15.50;99.90
1678;DHT22;6034;46.864;15.216;2023-06-14T07:26:06;15.50;99.90
1678;DHT22;6034;46.864;15.216;2023-06-14T07:28:33;15.50;99.90
1678;DHT22;6034;46.864;15.216;2023-06-14T07:31:00;15.50;99.90
1678;DHT22;6034;46.864;15.216;2023-06-14T07:33:28;15.50;99.90
1678;DHT22;6034;46.864;15.216;2023-06-14T07:35:56;15.50;99.90
1678;DHT22;6034;46.864;15.216;2023-06-14T07:38:24;15.50;99.90
1678;DHT22;6034;46.864;15.216;2023-06-14T07:40:52;15.40;99.90
1678;DHT22;6034;46.864;15.216;2023-06-14T07:43:19;15.40;99.90
1678;DHT22;6034;46.864;15.216;2023-06-14T07:45:47;15.40;99.90
1678;DHT22;6034;46.864;15.216;2023-06-14T07:48:14;15.30;99.90
1678;DHT22;6034;46.864;15.216;2023-06-14T07:50:42;15.30;99.90
1678;DHT22;6034;46.864;15.216;2023-06-14T07:53:09;15.30;99.90
1678;DHT22;6034;46.864;15.216;2023-06-14T07:55:38;15.20;99.90
1678;DHT22;6034;46.864;15.216;2023-06-14T07:58:06;15.20;99.90
1678;DHT22;6034;46.864;15.216;2023-06-14T08:00:33;15.10;99.90
1678;DHT22;6034;46.864;15.216;2023-06-14T08:03:00;15.20;99.90
1678;DHT22;6034;46.864;15.216;2023-06-14T08:05:28;15.10;99.90
1678;DHT22;6034;46.864;15.216;2023-06-14T08:07:56;15.10;99.90
1678;DHT22;6034;46.864;15.216;2023-06-14T08:10:24;15.10;99.90
1678;DHT22;6034;46.864;15.216;2023-06-14T08:12:52;15.20;99.90
1678;DHT22;6034;46.864;15.216;2023-06-14T08:15:20;15.20;99.90
1678;DHT22;6034;46.864;15.216;2023-06-14T08:17:48;15.20;99.90
1678;DHT22;6034;46.864;15.216;2023-06-14T08:20:16;15.20;99.90
1678;DHT22;6034;46.864;15.216;2023-06-14T08:22:43;15.30;99.90
1678;DHT22;6034;46.864;15.216;2023-06-14T08:25:12;15.30;99.90
1678;DHT22;6034;46.864;15.216;2023-06-14T08:27:40;15.40;99.90
1678;DHT22;6034;46.864;15.216;2023-06-14T08:30:10;15.40;99.90
1678;DHT22;6034;46.864;15.216;2023-06-14T08:32:38;15.40;99.90
1678;DHT22;6034;46.864;15.216;2023-06-14T08:35:07;15.40;99.90
1678;DHT22;6034;46.864;15.216;2023-06-14T08:37:38;15.40;99.90
1678;DHT22;6034;46.864;15.216;2023-06-14T08:40:17;15.50;99.90
1678;DHT22;6034;46.864;15.216;2023-06-14T08:42:48;15.60;99.90
1678;DHT22;6034;46.864;15.216;2023-06-14T08:45:18;15.50;99.90
1678;DHT22;6034;46.864;15.216;2023-06-14T08:47:46;15.60;99.90
1678;DHT22;6034;46.864;15.216;2023-06-14T08:50:19;15.20;99.90
1678;DHT22;6034;46.864;15.216;2023-06-14T08:52:48;15.30;99.90
1678;DHT22;6034;46.864;15.216;2023-06-14T08:55:18;15.30;99.90
1678;DHT22;6034;46.864;15.216;2023-06-14T08:57:47;15.20;99.90
1678;DHT22;6034;46.864;15.216;2023-06-14T09:00:18;14.70;99.90
1678;DHT22;6034;46.864;15.216;2023-06-14T09:02:46;14.80;99.90
1678;DHT22;6034;46.864;15.216;2023-06-14T09:05:14;14.30;99.90
1678;DHT22;6034;46.864;15.216;2023-06-14T09:07:44;14.10;99.90
1678;DHT22;6034;46.864;15.216;2023-06-14T09:10:13;14.30;99.90
1678;DHT22;6034;46.864;15.216;2023-06-14T09:12:41;14.10;99.90
1678;DHT22;6034;46.864;15.216;2023-06-14T09:15:09;14.50;99.90
1678;DHT22;6034;46.864;15.216;2023-06-14T09:17:38;14.30;99.90
1678;DHT22;6034;46.864;15.216;2023-06-14T09:20:07;14.40;99.90
1678;DHT22;6034;46.864;15.216;2023-06-14T09:22:36;14.40;99.90
1678;DHT22;6034;46.864;15.216;2023-06-14T09:25:05;14.30;99.90
1678;DHT22;6034;46.864;15.216;2023-06-14T09:27:32;14.60;99.90
1678;DHT22;6034;46.864;15.216;2023-06-14T09:30:02;15.20;99.90
1678;DHT22;6034;46.864;15.216;2023-06-14T09:32:31;15.50;99.90
1678;DHT22;6034;46.864;15.216;2023-06-14T09:34:59;15.50;99.90
1678;DHT22;6034;46.864;15.216;2023-06-14T09:37:28;15.20;99.90
1678;DHT22;6034;46.864;15.216;2023-06-14T09:39:56;14.70;99.90
1678;DHT22;6034;46.864;15.216;2023-06-14T09:42:23;15.30;99.90
1678;DHT22;6034;46.864;15.216;2023-06-14T09:44:54;15.20;99.90
1678;DHT22;6034;46.864;15.216;2023-06-14T09:47:22;15.00;99.90
1678;DHT22;6034;46.864;15.216;2023-06-14T09:49:50;15.10;99.90
1678;DHT22;6034;46.864;15.216;2023-06-14T09:52:22;14.80;99.90
1678;DHT22;6034;46.864;15.216;2023-06-14T09:54:50;14.90;99.90
1678;DHT22;6034;46.864;15.216;2023-06-14T09:57:20;15.00;99.90
1678;DHT22;6034;46.864;15.216;2023-06-14T09:59:48;15.10;99.90
1678;DHT22;6034;46.864;15.216;2023-06-14T10:02:22;15.10;99.90
1678;DHT22;6034;46.864;15.216;2023-06-14T10:04:56;14.80;99.90
1678;DHT22;6034;46.864;15.216;2023-06-14T10:07:30;14.50;99.90
1678;DHT22;6034;46.864;15.216;2023-06-14T10:09:59;14.30;99.90
1678;DHT22;6034;46.864;15.216;2023-06-14T10:12:27;14.20;99.90
1678;DHT22;6034;46.864;15.216;2023-06-14T10:14:55;14.50;99.90
1678;DHT22;6034;46.864;15.216;2023-06-14T10:17:32;14.00;99.90
1678;DHT22;6034;46.864;15.216;2023-06-14T10:20:11;14.10;99.90
1678;DHT22;6034;46.864;15.216;2023-06-14T10:22:46;14.40;99.90
1678;DHT22;6034;46.864;15.216;2023-06-14T10:25:26;14.50;99.90
1678;DHT22;6034;46.864;15.216;2023-06-14T10:28:03;14.30;99.90
1678;DHT22;6034;46.864;15.216;2023-06-14T10:30:31;14.50;99.90
1678;DHT22;6034;46.864;15.216;2023-06-14T10:33:05;14.50;99.90
1678;DHT22;6034;46.864;15.216;2023-06-14T10:35:33;14.70;99.90
1678;DHT22;6034;46.864;15.216;2023-06-14T10:38:11;14.90;99.90
1678;DHT22;6034;46.864;15.216;2023-06-14T10:40:39;14.80;99.90
1678;DHT22;6034;46.864;15.216;2023-06-14T10:43:23;15.00;99.90
1678;DHT22;6034;46.864;15.216;2023-06-14T10:46:15;15.60;99.90
1678;DHT22;6034;46.864;15.216;2023-06-14T10:48:43;15.80;99.90
1678;DHT22;6034;46.864;15.216;2023-06-14T10:51:18;16.10;99.90
1678;DHT22;6034;46.864;15.216;2023-06-14T10:53:50;16.00;99.90
1678;DHT22;6034;46.864;15.216;2023-06-14T10:56:26;15.80;99.90
1678;DHT22;6034;46.864;15.216;2023-06-14T10:58:54;15.00;99.90
1678;DHT22;6034;46.864;15.216;2023-06-14T11:01:32;16.00;99.90
1678;DHT22;6034;46.864;15.216;2023-06-14T11:04:07;16.00;99.90
1678;DHT22;6034;46.864;15.216;2023-06-14T11:06:46;15.60;99.90
1678;DHT22;6034;46.864;15.216;2023-06-14T11:12:21;15.50;99.90
1678;DHT22;6034;46.864;15.216;2023-06-14T11:14:50;15.70;99.90
1678;DHT22;6034;46.864;15.216;2023-06-14T11:17:17;15.70;99.90
1678;DHT22;6034;46.864;15.216;2023-06-14T11:19:44;16.30;99.90
1678;DHT22;6034;46.864;15.216;2023-06-14T11:22:12;16.10;99.90
1678;DHT22;6034;46.864;15.216;2023-06-14T11:24:43;16.30;99.90
1678;DHT22;6034;46.864;15.216;2023-06-14T11:27:10;16.40;99.90
1678;DHT22;6034;46.864;15.216;2023-06-14T11:29:38;16.60;99.90
1678;DHT22;6034;46.864;15.216;2023-06-14T11:32:07;16.70;99.90
1678;DHT22;6034;46.864;15.216;2023-06-14T11:34:38;16.60;99.90
1678;DHT22;6034;46.864;15.216;2023-06-14T11:37:05;16.40;99.90
1678;DHT22;6034;46.864;15.216;2023-06-14T11:39:33;16.50;99.90
1678;DHT22;6034;46.864;15.216;2023-06-14T11:42:03;16.50;99.90
1678;DHT22;6034;46.864;15.216;2023-06-14T11:44:32;16.00;99.90
1678;DHT22;6034;46.864;15.216;2023-06-14T11:47:03;15.90;99.90
1678;DHT22;6034;46.864;15.216;2023-06-14T11:49:35;16.00;99.90
1678;DHT22;6034;46.864;15.216;2023-06-14T11:52:03;16.10;99.90
1678;DHT22;6034;46.864;15.216;2023-06-14T11:54:32;16.10;99.90
1678;DHT22;6034;46.864;15.216;2023-06-14T11:56:59;15.60;99.90
1678;DHT22;6034;46.864;15.216;2023-06-14T11:59:28;15.80;99.90
1678;DHT22;6034;46.864;15.216;2023-06-14T12:01:56;16.00;99.90
1678;DHT22;6034;46.864;15.216;2023-06-14T12:04:24;16.10;99.90
1678;DHT22;6034;46.864;15.216;2023-06-14T12:06:51;15.90;99.90
1678;DHT22;6034;46.864;15.216;2023-06-14T12:09:21;16.10;99.90
1678;DHT22;6034;46.864;15.216;2023-06-14T12:11:50;16.10;99.90
1678;DHT22;6034;46.864;15.216;2023-06-14T12:14:18;15.90;99.90
1678;DHT22;6034;46.864;15.216;2023-06-14T12:16:47;16.00;99.90
1678;DHT22;6034;46.864;15.216;2023-06-14T12:19:15;16.20;99.90
1678;DHT22;6034;46.864;15.216;2023-06-14T12:21:45;16.20;99.90
1678;DHT22;6034;46.864;15.216;2023-06-14T12:24:14;16.40;99.90
1678;DHT22;6034;46.864;15.216;2023-06-14T12:26:42;16.60;99.90
1678;DHT22;6034;46.864;15.216;2023-06-14T12:29:09;16.40;99.90
1678;DHT22;6034;46.864;15.216;2023-06-14T12:31:38;16.40;99.90
1678;DHT22;6034;46.864;15.216;2023-06-14T12:34:07;16.40;99.90
1678;DHT22;6034;46.864;15.216;2023-06-14T12:36:35;16.40;99.90
1678;DHT22;6034;46.864;15.216;2023-06-14T12:39:07;16.40;99.90
1678;DHT22;6034;46.864;15.216;2023-06-14T12:41:35;16.60;99.90
1678;DHT22;6034;46.864;15.216;2023-06-14T12:44:03;16.60;99.90
1678;DHT22;6034;46.864;15.216;2023-06-14T12:46:31;16.70;99.90
1678;DHT22;6034;46.864;15.216;2023-06-14T12:48:58;16.50;99.90
1678;DHT22;6034;46.864;15.216;2023-06-14T12:51:27;16.60;99.90
1678;DHT22;6034;46.864;15.216;2023-06-14T12:53:55;16.70;99.90
1678;DHT22;6034;46.864;15.216;2023-06-14T12:56:22;16.80;99.90
1678;DHT22;6034;46.864;15.216;2023-06-14T12:58:49;16.70;99.90
1678;DHT22;6034;46.864;15.216;2023-06-14T13:01:17;16.70;99.90
1678;DHT22;6034;46.864;15.216;2023-06-14T13:03:44;16.70;99.90
1678;DHT22;6034;46.864;15.216;2023-06-14T13:06:12;16.80;99.90
1678;DHT22;6034;46.864;15.216;2023-06-14T13:08:40;17.00;99.90
1678;DHT22;6034;46.864;15.216;2023-06-14T13:11:08;16.90;99.90
1678;DHT22;6034;46.864;15.216;2023-06-14T13:13:34;17.20;99.90
1678;DHT22;6034;46.864;15.216;2023-06-14T13:16:02;17.20;99.90
1678;DHT22;6034;46.864;15.216;2023-06-14T13:18:28;17.30;99.90
1678;DHT22;6034;46.864;15.216;2023-06-14T13:20:55;17.40;99.90
1678;DHT22;6034;46.864;15.216;2023-06-14T13:23:22;17.40;99.90
1678;DHT22;6034;46.864;15.216;2023-06-14T13:25:50;17.30;99.90
1678;DHT22;6034;46.864;15.216;2023-06-14T13:28:18;17.40;99.90
1678;DHT22;6034;46.864;15.216;2023-06-14T13:30:46;17.60;99.90
1678;DHT22;6034;46.864;15.216;2023-06-14T13:33:13;17.60;99.90
1678;DHT22;6034;46.864;15.216;2023-06-14T13:35:40;17.90;99.90
1678;DHT22;6034;46.864;15.216;2023-06-14T13:38:08;17.50;99.90
1678;DHT22;6034;46.864;15.216;2023-06-14T13:40:35;17.30;99.90
1678;DHT22;6034;46.864;15.216;2023-06-14T13:43:03;17.40;99.90
1678;DHT22;6034;46.864;15.216;2023-06-14T13:45:30;17.40;99.90
1678;DHT22;6034;46.864;15.216;2023-06-14T13:47:58;17.10;99.90
1678;DHT22;6034;46.864;15.216;2023-06-14T13:50:24;17.10;99.90
1678;DHT22;6034;46.864;15.216;2023-06-14T13:52:51;17.40;99.90
1678;DHT22;6034;46.864;15.216;2023-06-14T13:55:18;17.20;99.90
1678;DHT22;6034;46.864;15.216;2023-06-14T13:57:46;17.30;99.90
1678;DHT22;6034;46.864;15.216;2023-06-14T14:00:14;17.10;99.90
1678;DHT22;6034;46.864;15.216;2023-06-14T14:02:42;17.50;99.90
1678;DHT22;6034;46.864;15.216;2023-06-14T14:05:09;17.60;99.90
1678;DHT22;6034;46.864;15.216;2023-06-14T14:07:36;17.50;99.90
1678;DHT22;6034;46.864;15.216;2023-06-14T14:10:03;17.60;99.90
1678;DHT22;6034;46.864;15.216;2023-06-14T14:12:30;17.70;99.90
1678;DHT22;6034;46.864;15.216;2023-06-14T14:14:57;17.60;99.90
1678;DHT22;6034;46.864;15.216;2023-06-14T14:17:27;17.60;99.90
1678;DHT22;6034;46.864;15.216;2023-06-14T14:19:54;17.50;99.90
1678;DHT22;6034;46.864;15.216;2023-06-14T14:22:21;17.60;99.90
1678;DHT22;6034;46.864;15.216;2023-06-14T14:24:47;17.80;99.90
1678;DHT22;6034;46.864;15.216;2023-06-14T14:27:14;17.50;99.90
1678;DHT22;6034;46.864;15.216;2023-06-14T14:29:41;17.60;99.90
1678;DHT22;6034;46.864;15.216;2023-06-14T14:32:08;17.80;99.90
1678;DHT22;6034;46.864;15.216;2023-06-14T14:34:41;17.90;99.90
1678;DHT22;6034;46.864;15.216;2023-06-14T14:37:08;17.90;99.90
1678;DHT22;6034;46.864;15.216;2023-06-14T14:39:36;17.90;99.90
1678;DHT22;6034;46.864;15.216;2023-06-14T14:42:03;17.80;99.90
1678;DHT22;6034;46.864;15.216;2023-06-14T14:44:30;17.80;99.90
1678;DHT22;6034;46.864;15.216;2023-06-14T14:46:57;17.90;99.90
1678;DHT22;6034;46.864;15.216;2023-06-14T14:49:24;17.90;99.90
1678;DHT22;6034;46.864;15.216;2023-06-14T14:51:53;18.00;99.90
1678;DHT22;6034;46.864;15.216;2023-06-14T14:54:21;18.00;99.90
1678;DHT22;6034;46.864;15.216;2023-06-14T14:56:49;18.00;99.90
1678;DHT22;6034;46.864;15.216;2023-06-14T14:59:15;18.10;99.90
1678;DHT22;6034;46.864;15.216;2023-06-14T15:01:42;18.10;99.90
1678;DHT22;6034;46.864;15.216;2023-06-14T15:04:11;18.10;99.90
1678;DHT22;6034;46.864;15.216;2023-06-14T15:06:37;18.20;99.90
1678;DHT22;6034;46.864;15.216;2023-06-14T15:09:06;18.20;99.90
1678;DHT22;6034;46.864;15.216;2023-06-14T15:11:33;18.20;99.90
1678;DHT22;6034;46.864;15.216;2023-06-14T15:14:00;18.30;99.90
1678;DHT22;6034;46.864;15.216;2023-06-14T15:16:27;18.30;99.90
1678;DHT22;6034;46.864;15.216;2023-06-14T15:18:55;18.30;99.90
1678;DHT22;6034;46.864;15.216;2023-06-14T15:21:22;18.30;99.90
1678;DHT22;6034;46.864;15.216;2023-06-14T15:23:50;18.30;99.90
1678;DHT22;6034;46.864;15.216;2023-06-14T15:26:20;18.30;99.90
1678;DHT22;6034;46.864;15.216;2023-06-14T15:28:49;18.20;99.90
1678;DHT22;6034;46.864;15.216;2023-06-14T15:31:16;18.20;99.90
1678;DHT22;6034;46.864;15.216;2023-06-14T15:33:43;18.30;99.90
1678;DHT22;6034;46.864;15.216;2023-06-14T15:36:10;18.20;99.90
1678;DHT22;6034;46.864;15.216;2023-06-14T15:38:37;18.20;99.90
1678;DHT22;6034;46.864;15.216;2023-06-14T15:41:03;18.20;99.90
1678;DHT22;6034;46.864;15.216;2023-06-14T15:43:32;18.20;99.90
1678;DHT22;6034;46.864;15.216;2023-06-14T15:45:59;18.20;99.90
1678;DHT22;6034;46.864;15.216;2023-06-14T15:48:26;18.20;99.90
1678;DHT22;6034;46.864;15.216;2023-06-14T15:50:53;18.20;99.90
1678;DHT22;6034;46.864;15.216;2023-06-14T15:53:20;18.10;99.90
1678;DHT22;6034;46.864;15.216;2023-06-14T15:55:47;18.10;99.90
1678;DHT22;6034;46.864;15.216;2023-06-14T15:58:14;18.10;99.90
1678;DHT22;6034;46.864;15.216;2023-06-14T16:00:43;18.20;99.90
1678;DHT22;6034;46.864;15.216;2023-06-14T16:03:10;18.20;99.90
1678;DHT22;6034;46.864;15.216;2023-06-14T16:05:37;18.20;99.90
1678;DHT22;6034;46.864;15.216;2023-06-14T16:08:05;18.20;99.90
1678;DHT22;6034;46.864;15.216;2023-06-14T16:10:33;18.10;99.90
1678;DHT22;6034;46.864;15.216;2023-06-14T16:13:00;18.20;99.90
1678;DHT22;6034;46.864;15.216;2023-06-14T16:15:27;18.10;99.90
1678;DHT22;6034;46.864;15.216;2023-06-14T16:17:56;18.10;99.90
1678;DHT22;6034;46.864;15.216;2023-06-14T16:20:26;18.10;99.90
1678;DHT22;6034;46.864;15.216;2023-06-14T16:22:54;18.10;99.90
1678;DHT22;6034;46.864;15.216;2023-06-14T16:25:21;18.10;99.90
1678;DHT22;6034;46.864;15.216;2023-06-14T16:27:48;18.20;99.90
1678;DHT22;6034;46.864;15.216;2023-06-14T16:30:15;18.20;99.90
1678;DHT22;6034;46.864;15.216;2023-06-14T16:32:42;18.10;99.90
1678;DHT22;6034;46.864;15.216;2023-06-14T16:35:11;18.10;99.90
1678;DHT22;6034;46.864;15.216;2023-06-14T16:37:38;18.10;99.90
1678;DHT22;6034;46.864;15.216;2023-06-14T16:40:06;18.00;99.90
1678;DHT22;6034;46.864;15.216;2023-06-14T16:42:33;18.00;99.90
1678;DHT22;6034;46.864;15.216;2023-06-14T16:45:00;18.00;99.90
1678;DHT22;6034;46.864;15.216;2023-06-14T16:47:27;18.00;99.90
1678;DHT22;6034;46.864;15.216;2023-06-14T16:49:54;18.00;99.90
1678;DHT22;6034;46.864;15.216;2023-06-14T16:52:23;18.00;99.90
1678;DHT22;6034;46.864;15.216;2023-06-14T16:54:50;17.90;99.90
1678;DHT22;6034;46.864;15.216;2023-06-14T16:57:17;17.90;99.90
1678;DHT22;6034;46.864;15.216;2023-06-14T16:59:44;17.90;99.90
1678;DHT22;6034;46.864;15.216;2023-06-14T17:02:11;17.90;99.90
1678;DHT22;6034;46.864;15.216;2023-06-14T17:04:38;17.90;99.90
1678;DHT22;6034;46.864;15.216;2023-06-14T17:07:05;18.00;99.90
1678;DHT22;6034;46.864;15.216;2023-06-14T17:09:34;17.90;99.90
1678;DHT22;6034;46.864;15.216;2023-06-14T17:12:02;17.90;99.90
1678;DHT22;6034;46.864;15.216;2023-06-14T17:14:30;17.90;99.90
1678;DHT22;6034;46.864;15.216;2023-06-14T17:16:58;17.90;99.90
1678;DHT22;6034;46.864;15.216;2023-06-14T17:19:25;17.90;99.90
1678;DHT22;6034;46.864;15.216;2023-06-14T17:21:52;17.90;99.90
1678;DHT22;6034;46.864;15.216;2023-06-14T17:24:19;17.80;99.90
1678;DHT22;6034;46.864;15.216;2023-06-14T17:26:48;17.80;99.90
1678;DHT22;6034;46.864;15.216;2023-06-14T17:29:15;17.80;99.90
1678;DHT22;6034;46.864;15.216;2023-06-14T17:31:42;17.80;99.90
1678;DHT22;6034;46.864;15.216;2023-06-14T17:34:09;17.70;99.90
1678;DHT22;6034;46.864;15.216;2023-06-14T17:36:36;17.70;99.90
1678;DHT22;6034;46.864;15.216;2023-06-14T17:39:03;17.70;99.90
1678;DHT22;6034;46.864;15.216;2023-06-14T17:41:32;17.60;99.90
1678;DHT22;6034;46.864;15.216;2023-06-14T17:44:00;17.50;99.90
1678;DHT22;6034;46.864;15.216;2023-06-14T17:46:27;17.50;99.90
1678;DHT22;6034;46.864;15.216;2023-06-14T17:48:54;17.60;99.90
1678;DHT22;6034;46.864;15.216;2023-06-14T17:51:21;17.50;99.90
1678;DHT22;6034;46.864;15.216;2023-06-14T17:53:49;17.40;99.90
1678;DHT22;6034;46.864;15.216;2023-06-14T17:56:18;17.40;99.90
1678;DHT22;6034;46.864;15.216;2023-06-14T17:58:45;17.40;99.90
1678;DHT22;6034;46.864;15.216;2023-06-14T18:01:13;17.40;99.90
1678;DHT22;6034;46.864;15.216;2023-06-14T18:03:42;17.20;99.90
1678;DHT22;6034;46.864;15.216;2023-06-14T18:06:09;17.40;99.90
1678;DHT22;6034;46.864;15.216;2023-06-14T18:08:36;17.40;99.90
1678;DHT22;6034;46.864;15.216;2023-06-14T18:11:03;17.30;99.90
1678;DHT22;6034;46.864;15.216;2023-06-14T18:13:30;17.20;99.90
1678;DHT22;6034;46.864;15.216;2023-06-14T18:15:58;17.30;99.90
1678;DHT22;6034;46.864;15.216;2023-06-14T18:18:26;17.20;99.90
1678;DHT22;6034;46.864;15.216;2023-06-14T18:20:54;17.20;99.90
1678;DHT22;6034;46.864;15.216;2023-06-14T18:23:21;17.30;99.90
1678;DHT22;6034;46.864;15.216;2023-06-14T18:25:49;17.30;99.90
1678;DHT22;6034;46.864;15.216;2023-06-14T18:28:16;17.20;99.90
1678;DHT22;6034;46.864;15.216;2023-06-14T18:30:43;17.20;99.90
1678;DHT22;6034;46.864;15.216;2023-06-14T18:33:10;17.10;99.90
1678;DHT22;6034;46.864;15.216;2023-06-14T18:35:39;17.10;99.90
1678;DHT22;6034;46.864;15.216;2023-06-14T18:38:06;17.00;99.90
1678;DHT22;6034;46.864;15.216;2023-06-14T18:40:34;16.90;99.90
1678;DHT22;6034;46.864;15.216;2023-06-14T18:43:02;16.90;99.90
1678;DHT22;6034;46.864;15.216;2023-06-14T18:45:29;16.90;99.90
1678;DHT22;6034;46.864;15.216;2023-06-14T18:47:57;16.90;99.90
1678;DHT22;6034;46.864;15.216;2023-06-14T18:50:24;16.80;99.90
1678;DHT22;6034;46.864;15.216;2023-06-14T18:52:53;16.80;99.90
1678;DHT22;6034;46.864;15.216;2023-06-14T18:55:20;16.90;99.90
1678;DHT22;6034;46.864;15.216;2023-06-14T18:57:48;16.90;99.90
1678;DHT22;6034;46.864;15.216;2023-06-14T19:00:16;16.90;99.90
1678;DHT22;6034;46.864;15.216;2023-06-14T19:02:46;16.80;99.90
1678;DHT22;6034;46.864;15.216;2023-06-14T19:05:14;16.80;99.90
1678;DHT22;6034;46.864;15.216;2023-06-14T19:07:41;16.80;99.90
1678;DHT22;6034;46.864;15.216;2023-06-14T19:10:10;16.80;99.90
1678;DHT22;6034;46.864;15.216;2023-06-14T19:12:40;16.80;99.90
1678;DHT22;6034;46.864;15.216;2023-06-14T19:15:08;16.70;99.90
1678;DHT22;6034;46.864;15.216;2023-06-14T19:17:35;16.70;99.90
1678;DHT22;6034;46.864;15.216;2023-06-14T19:20:02;16.70;99.90
1678;DHT22;6034;46.864;15.216;2023-06-14T19:22:30;16.70;99.90
1678;DHT22;6034;46.864;15.216;2023-06-14T19:24:57;16.70;99.90
1678;DHT22;6034;46.864;15.216;2023-06-14T19:27:25;16.60;99.90
1678;DHT22;6034;46.864;15.216;2023-06-14T19:29:52;16.60;99.90
1678;DHT22;6034;46.864;15.216;2023-06-14T19:32:22;16.60;99.90
1678;DHT22;6034;46.864;15.216;2023-06-14T19:34:49;16.40;99.90
1678;DHT22;6034;46.864;15.216;2023-06-14T19:37:19;16.50;99.90
1678;DHT22;6034;46.864;15.216;2023-06-14T19:39:47;16.50;99.90
1678;DHT22;6034;46.864;15.216;2023-06-14T19:42:14;16.40;99.90
1678;DHT22;6034;46.864;15.216;2023-06-14T19:44:42;16.40;99.90
1678;DHT22;6034;46.864;15.216;2023-06-14T19:47:10;16.50;99.90
1678;DHT22;6034;46.864;15.216;2023-06-14T19:49:39;16.50;99.90
1678;DHT22;6034;46.864;15.216;2023-06-14T19:52:07;16.40;99.90
1678;DHT22;6034;46.864;15.216;2023-06-14T19:54:35;16.40;99.90
1678;DHT22;6034;46.864;15.216;2023-06-14T19:57:02;16.30;99.90
1678;DHT22;6034;46.864;15.216;2023-06-14T19:59:29;16.30;99.90
1678;DHT22;6034;46.864;15.216;2023-06-14T20:01:58;16.30;99.90
1678;DHT22;6034;46.864;15.216;2023-06-14T20:04:26;16.30;99.90
1678;DHT22;6034;46.864;15.216;2023-06-14T20:06:53;15.20;99.90
1678;DHT22;6034;46.864;15.216;2023-06-14T20:09:23;16.30;99.90
1678;DHT22;6034;46.864;15.216;2023-06-14T20:11:51;16.30;99.90
1678;DHT22;6034;46.864;15.216;2023-06-14T20:14:18;16.30;99.90
1678;DHT22;6034;46.864;15.216;2023-06-14T20:16:46;16.20;99.90
1678;DHT22;6034;46.864;15.216;2023-06-14T20:19:15;16.20;99.90
1678;DHT22;6034;46.864;15.216;2023-06-14T20:21:42;16.20;99.90
1678;DHT22;6034;46.864;15.216;2023-06-14T20:24:09;16.30;99.90
1678;DHT22;6034;46.864;15.216;2023-06-14T20:26:35;16.30;99.90
1678;DHT22;6034;46.864;15.216;2023-06-14T20:29:02;16.30;99.90
1678;DHT22;6034;46.864;15.216;2023-06-14T20:31:29;16.20;99.90
1678;DHT22;6034;46.864;15.216;2023-06-14T20:33:56;16.20;99.90
1678;DHT22;6034;46.864;15.216;2023-06-14T20:36:25;16.20;99.90
1678;DHT22;6034;46.864;15.216;2023-06-14T20:38:55;16.10;99.90
1678;DHT22;6034;46.864;15.216;2023-06-14T20:41:22;16.10;99.90
1678;DHT22;6034;46.864;15.216;2023-06-14T20:43:49;16.10;99.90
1678;DHT22;6034;46.864;15.216;2023-06-14T20:46:18;16.10;99.90
1678;DHT22;6034;46.864;15.216;2023-06-14T20:48:46;16.10;99.90
1678;DHT22;6034;46.864;15.216;2023-06-14T20:51:13;16.10;99.90
1678;DHT22;6034;46.864;15.216;2023-06-14T20:53:41;16.10;99.90
1678;DHT22;6034;46.864;15.216;2023-06-14T20:56:08;16.20;99.90